createdAt,value
2022-12-18T12:49:23.841Z,97881.91
2022-12-18T12:52:05.132Z,97870.91
2022-12-18T12:54:32.963Z,97864.34
2022-12-18T12:57:10.443Z,97890.41
2022-12-18T12:59:59.017Z,97889.66
2022-12-18T13:02:37.068Z,97902.22
2022-12-18T13:05:07.139Z,97908.31
2022-12-18T13:07:37.926Z,97902.28
2022-12-18T13:10:28.730Z,97903.03
2022-12-18T13:13:01.956Z,97911.59
2022-12-18T13:15:43.980Z,97882.97
2022-12-18T13:18:10.273Z,97914.94
2022-12-18T13:20:39.787Z,97875.50
2022-12-18T13:23:24.517Z,97916.69
2022-12-18T13:26:01.056Z,97908.22
2022-12-18T13:28:33.634Z,97912.31
2022-12-18T13:31:01.765Z,97901.28
2022-12-18T13:33:31.260Z,97910.56
2022-12-18T13:36:24.121Z,97908.84
2022-12-18T13:39:19.771Z,97909.66
2022-12-18T13:41:54.735Z,97902.00
2022-12-18T13:44:41.459Z,97899.44
2022-12-18T13:47:29.259Z,97905.69
2022-12-18T13:49:55.899Z,97903.84
2022-12-18T13:52:26.778Z,97897.06
2022-12-18T13:54:57.969Z,97900.06
2022-12-18T13:57:42.353Z,97904.31
2022-12-18T14:00:32.752Z,97886.25
2022-12-18T14:03:00.228Z,97877.94
2022-12-18T14:05:29.645Z,97888.63
2022-12-18T14:07:56.868Z,97892.16
2022-12-18T14:10:42.291Z,97897.13
2022-12-18T14:13:11.705Z,97894.47
2022-12-18T14:15:48.516Z,97889.22
2022-12-18T14:18:37.704Z,97894.28
2022-12-18T14:21:05.149Z,97879.19
2022-12-18T14:23:41.591Z,97890.00
2022-12-18T14:26:33.165Z,97891.66
2022-12-18T14:29:02.360Z,97895.25
2022-12-18T14:31:30.932Z,97898.50
2022-12-18T14:33:57.532Z,97894.97
2022-12-18T14:36:28.417Z,97891.72
2022-12-18T14:38:58.702Z,97891.66
2022-12-18T14:41:26.210Z,97882.34
2022-12-18T14:43:54.793Z,97890.47
2022-12-18T14:46:41.263Z,97864.63
2022-12-18T14:49:21.571Z,97888.94
2022-12-18T14:51:49.941Z,97897.53
2022-12-18T14:54:18.691Z,97892.44
2022-12-18T14:56:47.496Z,97883.09
2022-12-18T14:59:23.852Z,97886.44
2022-12-18T15:02:12.289Z,97884.84
2022-12-18T15:04:40.558Z,97896.75
2022-12-18T15:07:21.233Z,97901.84
2022-12-18T15:10:02.666Z,97900.13
2022-12-18T15:12:40.192Z,97888.25
2022-12-18T15:15:38.966Z,97896.69
2022-12-18T15:18:08.777Z,97898.44
2022-12-18T15:20:54.407Z,97897.53
2022-12-18T15:23:32.970Z,97891.53
2022-12-18T15:26:19.811Z,97880.56
2022-12-18T15:28:51.482Z,97890.41
2022-12-18T15:31:18.253Z,97889.81
2022-12-18T15:33:53.124Z,97893.16
2022-12-18T15:36:21.376Z,97890.59
2022-12-18T15:38:54.568Z,97882.19
2022-12-18T15:41:24.914Z,97888.13
2022-12-18T15:43:52.790Z,97887.28
2022-12-18T15:46:23.755Z,97894.88
2022-12-18T15:48:55.484Z,97895.06
2022-12-18T15:51:34.424Z,97896.63
2022-12-18T15:54:02.619Z,97894.06
2022-12-18T15:56:47.280Z,97891.53
2022-12-18T15:59:17.398Z,97893.09
2022-12-18T16:01:51.574Z,97891.47
2022-12-18T16:04:21.458Z,97892.31
2022-12-18T16:07:13.960Z,97883.88
2022-12-18T16:09:34.965Z,97901.78
2022-12-18T16:12:01.505Z,97903.47
2022-12-18T16:14:30.324Z,97893.41
2022-12-18T16:16:58.909Z,97879.06
2022-12-18T16:19:25.685Z,97891.59
2022-12-18T16:21:53.521Z,97890.59
2022-12-18T16:24:25.322Z,97899.16
2022-12-18T16:26:53.025Z,97898.25
2022-12-18T16:29:20.476Z,97888.06
2022-12-18T16:31:46.923Z,97888.13
2022-12-18T16:34:26.752Z,97888.06
2022-12-18T16:37:04.900Z,97888.06
2022-12-18T16:39:32.954Z,97883.28
2022-12-18T16:41:59.900Z,97888.00
2022-12-18T16:44:28.417Z,97891.41
2022-12-18T16:46:55.044Z,97900.00
2022-12-18T16:49:22.425Z,97903.41
2022-12-18T16:51:48.880Z,97890.50
2022-12-18T16:54:19.058Z,97885.44
2022-12-18T16:56:47.902Z,97888.00
2022-12-18T16:59:14.517Z,97886.13
2022-12-18T17:01:42.615Z,97892.19
2022-12-18T17:04:09.665Z,97881.09
2022-12-18T17:06:40.834Z,97871.75
2022-12-18T17:09:09.388Z,97878.53
2022-12-18T17:11:36.258Z,97872.53
2022-12-18T17:14:15.733Z,97881.75
2022-12-18T17:16:42.457Z,97878.34
2022-12-18T17:19:13.739Z,97873.22
2022-12-18T17:21:44.433Z,97872.34
2022-12-18T17:24:10.849Z,97870.78
2022-12-18T17:26:37.580Z,97875.75
2022-12-18T17:29:04.108Z,97858.78
2022-12-18T17:31:30.963Z,97858.72
2022-12-18T17:33:57.876Z,97865.59
2022-12-18T17:36:24.992Z,97865.50
2022-12-18T17:38:52.775Z,97860.34
2022-12-18T17:41:19.360Z,97859.63
2022-12-18T17:43:51.670Z,97863.69
2022-12-18T17:46:18.844Z,97874.84
2022-12-18T17:48:45.528Z,97862.88
2022-12-18T17:51:12.157Z,97857.72
2022-12-18T17:53:39.607Z,97858.41
2022-12-18T17:56:08.220Z,97856.00
2022-12-18T17:58:36.843Z,97866.09
2022-12-18T18:01:05.460Z,97867.88
2022-12-18T18:03:33.131Z,97848.59
2022-12-18T18:06:01.450Z,97875.53
2022-12-18T18:08:28.861Z,97874.75
2022-12-18T18:10:55.686Z,97869.00
2022-12-18T18:13:47.062Z,97868.72
2022-12-18T18:16:13.975Z,97855.19
2022-12-18T18:18:40.472Z,97862.53
2022-12-18T18:21:08.162Z,97840.03
2022-12-18T18:23:35.496Z,97864.34
2022-12-18T18:26:06.143Z,97863.50
2022-12-18T18:28:33.302Z,97859.19
2022-12-18T18:31:05.401Z,97832.28
2022-12-18T18:33:32.731Z,97860.88
2022-12-18T18:35:59.362Z,97848.59
2022-12-18T18:38:25.804Z,97856.59
2022-12-18T18:41:02.775Z,97856.69
2022-12-18T18:43:29.674Z,97866.03
2022-12-18T18:46:01.248Z,97856.75
2022-12-18T18:48:29.244Z,97868.63
2022-12-18T18:51:04.884Z,97866.03
2022-12-18T18:53:31.571Z,97865.25
2022-12-18T18:56:34.804Z,97865.22
2022-12-18T18:58:45.722Z,97869.44
2022-12-18T19:01:14.675Z,97864.25
2022-12-18T19:03:42.396Z,97874.59
2022-12-18T19:06:13.087Z,97872.94
2022-12-18T19:08:40.991Z,97881.50
2022-12-18T19:11:33.164Z,97875.38
2022-12-18T19:14:04.941Z,97858.34
2022-12-18T19:16:32.136Z,97864.47
2022-12-18T19:19:01.895Z,97871.19
2022-12-18T19:21:28.946Z,97865.13
2022-12-18T19:23:58.356Z,97869.34
2022-12-18T19:26:28.030Z,97862.47
2022-12-18T19:28:55.023Z,97855.66
2022-12-18T19:31:27.105Z,97858.13
2022-12-18T19:33:56.450Z,97841.06
2022-12-18T19:36:25.305Z,97861.69
2022-12-18T19:38:53.991Z,97863.25
2022-12-18T19:41:21.860Z,97836.16
2022-12-18T19:43:49.232Z,97840.97
2022-12-18T19:46:18.352Z,97833.53
2022-12-18T19:48:45.425Z,97819.06
2022-12-18T19:51:17.525Z,97826.69
2022-12-18T19:53:44.413Z,97823.16
2022-12-18T19:56:13.896Z,97815.41
2022-12-18T19:58:40.525Z,97816.25
2022-12-18T20:01:11.708Z,97808.44
2022-12-18T20:03:40.650Z,97803.41
2022-12-18T20:06:19.424Z,97804.22
2022-12-18T20:08:47.201Z,97801.78
2022-12-18T20:11:13.641Z,97808.44
2022-12-18T20:13:40.451Z,97803.28
2022-12-18T20:16:07.416Z,97797.28
2022-12-18T20:18:36.930Z,97756.84
2022-12-18T20:21:04.445Z,97787.72
2022-12-18T20:23:32.824Z,97773.16
2022-12-18T20:26:00.764Z,97765.44
2022-12-18T20:28:27.207Z,97762.97
2022-12-18T20:31:00.365Z,97770.53
2022-12-18T20:33:27.569Z,97749.97
2022-12-18T20:35:54.527Z,97752.47
2022-12-18T20:38:21.780Z,97725.59
2022-12-18T20:40:50.150Z,97733.75
2022-12-18T20:43:17.521Z,97758.41
2022-12-18T20:45:44.051Z,97709.34
2022-12-18T20:48:12.285Z,97738.88
2022-12-18T20:50:38.772Z,97757.63
2022-12-18T20:53:05.267Z,97758.59
2022-12-18T20:55:31.757Z,97752.47
2022-12-18T20:57:58.183Z,97754.19
2022-12-18T21:00:24.594Z,97748.25
